Airport View

Enter AWOS ICAO identifier for current METAR.

ex. KFNL

KD55 170945Z AUTO 32010G15KT 4SM -SN BKN001 BKN011 OVC016 M03/M04 A2992 RMK AO2

17 Nov 2019 09:52

Frequency: 118.225

Phone: 701-256-2121

Other Area AWOS: K96D - CXMD - K2C8 - CWPO

TAF KDVL 170535Z 1706/1806 31016G22KT P6SM OVC025 TEMPO 1706/1708 -SN FM171000 31012KT P6SM OVC015 FM171800 28007KT P6SM OVC025 FM172100 VRB05KT P6SM BKN070